sensor_id;sensor_type;location;lat;lon;timestamp;P1;durP1;ratioP1;P2;durP2;ratioP2
23155;SDS011;11746;50.876;4.246;2022-08-19T00:01:43;22.38;;;20.00;;
23155;SDS011;11746;50.876;4.246;2022-08-19T00:04:14;23.17;;;19.90;;
23155;SDS011;11746;50.876;4.246;2022-08-19T00:06:43;25.83;;;22.20;;
23155;SDS011;11746;50.876;4.246;2022-08-19T00:09:12;27.00;;;22.38;;
23155;SDS011;11746;50.876;4.246;2022-08-19T00:11:41;28.45;;;22.65;;
23155;SDS011;11746;50.876;4.246;2022-08-19T00:14:09;28.45;;;22.65;;
23155;SDS011;11746;50.876;4.246;2022-08-19T00:16:40;29.27;;;23.00;;
23155;SDS011;11746;50.876;4.246;2022-08-19T00:19:12;30.73;;;23.87;;
23155;SDS011;11746;50.876;4.246;2022-08-19T00:21:39;29.77;;;24.67;;
23155;SDS011;11746;50.876;4.246;2022-08-19T00:24:07;30.83;;;25.25;;
23155;SDS011;11746;50.876;4.246;2022-08-19T00:26:40;32.53;;;25.75;;
23155;SDS011;11746;50.876;4.246;2022-08-19T00:29:09;33.80;;;27.25;;
23155;SDS011;11746;50.876;4.246;2022-08-19T00:31:36;37.20;;;27.60;;
23155;SDS011;11746;50.876;4.246;2022-08-19T00:34:02;38.70;;;29.27;;
23155;SDS011;11746;50.876;4.246;2022-08-19T00:36:28;38.83;;;30.02;;
23155;SDS011;11746;50.876;4.246;2022-08-19T00:38:54;40.20;;;30.20;;
23155;SDS011;11746;50.876;4.246;2022-08-19T00:41:20;40.67;;;29.80;;
23155;SDS011;11746;50.876;4.246;2022-08-19T00:44:00;43.67;;;32.20;;
23155;SDS011;11746;50.876;4.246;2022-08-19T00:46:35;41.28;;;31.25;;
23155;SDS011;11746;50.876;4.246;2022-08-19T00:49:05;39.00;;;29.23;;
23155;SDS011;11746;50.876;4.246;2022-08-19T00:51:39;37.00;;;27.98;;
23155;SDS011;11746;50.876;4.246;2022-08-19T00:54:06;33.58;;;27.42;;
23155;SDS011;11746;50.876;4.246;2022-08-19T00:56:35;32.83;;;26.25;;
23155;SDS011;11746;50.876;4.246;2022-08-19T00:59:05;32.92;;;25.15;;
23155;SDS011;11746;50.876;4.246;2022-08-19T01:01:39;32.53;;;25.95;;
23155;SDS011;11746;50.876;4.246;2022-08-19T01:04:09;29.63;;;25.05;;
23155;SDS011;11746;50.876;4.246;2022-08-19T01:06:37;28.92;;;24.83;;
23155;SDS011;11746;50.876;4.246;2022-08-19T01:09:05;35.42;;;26.10;;
23155;SDS011;11746;50.876;4.246;2022-08-19T01:11:33;31.38;;;24.92;;
23155;SDS011;11746;50.876;4.246;2022-08-19T01:14:01;32.35;;;25.48;;
23155;SDS011;11746;50.876;4.246;2022-08-19T01:16:29;34.50;;;26.73;;
23155;SDS011;11746;50.876;4.246;2022-08-19T01:18:57;37.13;;;28.45;;
23155;SDS011;11746;50.876;4.246;2022-08-19T01:23:51;38.63;;;30.55;;
23155;SDS011;11746;50.876;4.246;2022-08-19T01:26:18;40.30;;;31.10;;
23155;SDS011;11746;50.876;4.246;2022-08-19T01:28:47;41.92;;;31.27;;
23155;SDS011;11746;50.876;4.246;2022-08-19T01:31:16;39.10;;;29.70;;
23155;SDS011;11746;50.876;4.246;2022-08-19T01:33:47;40.97;;;30.80;;
23155;SDS011;11746;50.876;4.246;2022-08-19T01:36:15;36.67;;;30.65;;
23155;SDS011;11746;50.876;4.246;2022-08-19T01:38:48;37.65;;;30.20;;
23155;SDS011;11746;50.876;4.246;2022-08-19T01:41:14;38.35;;;30.55;;
23155;SDS011;11746;50.876;4.246;2022-08-19T01:43:44;38.53;;;30.30;;
23155;SDS011;11746;50.876;4.246;2022-08-19T01:46:13;36.33;;;28.52;;
23155;SDS011;11746;50.876;4.246;2022-08-19T01:48:40;38.38;;;29.85;;
23155;SDS011;11746;50.876;4.246;2022-08-19T01:51:10;36.88;;;28.60;;
23155;SDS011;11746;50.876;4.246;2022-08-19T01:53:37;36.50;;;28.70;;
23155;SDS011;11746;50.876;4.246;2022-08-19T01:56:03;31.48;;;25.90;;
23155;SDS011;11746;50.876;4.246;2022-08-19T01:58:30;32.60;;;26.80;;
23155;SDS011;11746;50.876;4.246;2022-08-19T02:01:02;34.00;;;26.23;;
23155;SDS011;11746;50.876;4.246;2022-08-19T02:03:30;35.53;;;26.08;;
23155;SDS011;11746;50.876;4.246;2022-08-19T02:05:56;32.38;;;24.20;;
23155;SDS011;11746;50.876;4.246;2022-08-19T02:08:27;32.15;;;24.63;;
23155;SDS011;11746;50.876;4.246;2022-08-19T02:10:53;31.55;;;24.90;;
23155;SDS011;11746;50.876;4.246;2022-08-19T02:13:25;30.67;;;24.38;;
23155;SDS011;11746;50.876;4.246;2022-08-19T02:15:51;31.35;;;24.35;;
23155;SDS011;11746;50.876;4.246;2022-08-19T02:18:20;31.08;;;24.08;;
23155;SDS011;11746;50.876;4.246;2022-08-19T02:20:46;32.00;;;23.85;;
23155;SDS011;11746;50.876;4.246;2022-08-19T02:23:15;32.85;;;24.35;;
23155;SDS011;11746;50.876;4.246;2022-08-19T02:25:42;32.42;;;23.48;;
23155;SDS011;11746;50.876;4.246;2022-08-19T02:28:09;32.03;;;24.83;;
23155;SDS011;11746;50.876;4.246;2022-08-19T02:30:36;31.63;;;24.85;;
23155;SDS011;11746;50.876;4.246;2022-08-19T02:33:03;30.10;;;23.73;;
23155;SDS011;11746;50.876;4.246;2022-08-19T02:35:29;30.45;;;25.13;;
23155;SDS011;11746;50.876;4.246;2022-08-19T02:37:56;33.42;;;25.13;;
23155;SDS011;11746;50.876;4.246;2022-08-19T02:40:40;31.73;;;24.97;;
23155;SDS011;11746;50.876;4.246;2022-08-19T02:43:06;30.13;;;23.98;;
23155;SDS011;11746;50.876;4.246;2022-08-19T02:45:37;31.52;;;24.05;;
23155;SDS011;11746;50.876;4.246;2022-08-19T02:48:05;29.65;;;23.77;;
23155;SDS011;11746;50.876;4.246;2022-08-19T02:50:36;31.65;;;23.58;;
23155;SDS011;11746;50.876;4.246;2022-08-19T02:53:06;34.88;;;24.60;;
23155;SDS011;11746;50.876;4.246;2022-08-19T02:55:33;32.67;;;24.63;;
23155;SDS011;11746;50.876;4.246;2022-08-19T02:58:01;33.20;;;24.73;;
23155;SDS011;11746;50.876;4.246;2022-08-19T03:00:27;31.60;;;24.20;;
23155;SDS011;11746;50.876;4.246;2022-08-19T03:02:53;31.38;;;23.98;;
23155;SDS011;11746;50.876;4.246;2022-08-19T03:05:25;33.33;;;25.33;;
23155;SDS011;11746;50.876;4.246;2022-08-19T03:07:51;29.52;;;24.00;;
23155;SDS011;11746;50.876;4.246;2022-08-19T03:10:17;30.48;;;22.77;;
23155;SDS011;11746;50.876;4.246;2022-08-19T03:12:43;30.90;;;21.95;;
23155;SDS011;11746;50.876;4.246;2022-08-19T03:15:10;29.35;;;21.80;;
23155;SDS011;11746;50.876;4.246;2022-08-19T03:17:35;28.63;;;22.85;;
23155;SDS011;11746;50.876;4.246;2022-08-19T03:20:03;30.45;;;22.30;;
23155;SDS011;11746;50.876;4.246;2022-08-19T03:22:29;27.30;;;21.23;;
23155;SDS011;11746;50.876;4.246;2022-08-19T03:24:55;28.58;;;21.40;;
23155;SDS011;11746;50.876;4.246;2022-08-19T03:27:22;27.73;;;20.83;;
23155;SDS011;11746;50.876;4.246;2022-08-19T03:29:47;28.45;;;22.00;;
23155;SDS011;11746;50.876;4.246;2022-08-19T03:32:16;28.98;;;22.20;;
23155;SDS011;11746;50.876;4.246;2022-08-19T03:34:43;30.35;;;21.60;;
23155;SDS011;11746;50.876;4.246;2022-08-19T03:37:10;28.48;;;21.17;;
23155;SDS011;11746;50.876;4.246;2022-08-19T03:39:39;30.17;;;21.00;;
23155;SDS011;11746;50.876;4.246;2022-08-19T03:42:09;25.90;;;20.35;;
23155;SDS011;11746;50.876;4.246;2022-08-19T03:44:36;25.77;;;19.45;;
23155;SDS011;11746;50.876;4.246;2022-08-19T03:47:07;26.73;;;20.00;;
23155;SDS011;11746;50.876;4.246;2022-08-19T03:49:33;29.50;;;21.02;;
23155;SDS011;11746;50.876;4.246;2022-08-19T03:52:00;26.67;;;19.25;;
23155;SDS011;11746;50.876;4.246;2022-08-19T03:54:27;28.33;;;20.67;;
23155;SDS011;11746;50.876;4.246;2022-08-19T03:56:53;27.70;;;19.55;;
23155;SDS011;11746;50.876;4.246;2022-08-19T03:59:22;27.30;;;19.05;;
23155;SDS011;11746;50.876;4.246;2022-08-19T04:01:54;24.05;;;18.50;;
23155;SDS011;11746;50.876;4.246;2022-08-19T04:04:21;25.35;;;18.75;;
23155;SDS011;11746;50.876;4.246;2022-08-19T04:06:47;23.65;;;18.08;;
23155;SDS011;11746;50.876;4.246;2022-08-19T04:09:17;24.58;;;18.30;;
23155;SDS011;11746;50.876;4.246;2022-08-19T04:11:45;25.30;;;18.77;;
23155;SDS011;11746;50.876;4.246;2022-08-19T04:14:17;25.83;;;19.45;;
23155;SDS011;11746;50.876;4.246;2022-08-19T04:16:47;24.65;;;17.98;;
23155;SDS011;11746;50.876;4.246;2022-08-19T04:19:14;26.08;;;18.80;;
23155;SDS011;11746;50.876;4.246;2022-08-19T04:21:43;26.88;;;18.38;;
23155;SDS011;11746;50.876;4.246;2022-08-19T04:24:10;25.67;;;18.20;;
23155;SDS011;11746;50.876;4.246;2022-08-19T04:26:36;26.13;;;18.73;;
23155;SDS011;11746;50.876;4.246;2022-08-19T04:29:08;21.90;;;16.90;;
23155;SDS011;11746;50.876;4.246;2022-08-19T04:31:39;25.08;;;19.63;;
23155;SDS011;11746;50.876;4.246;2022-08-19T04:34:09;24.48;;;18.42;;
23155;SDS011;11746;50.876;4.246;2022-08-19T04:36:37;24.08;;;17.77;;
23155;SDS011;11746;50.876;4.246;2022-08-19T04:39:15;26.50;;;17.90;;
23155;SDS011;11746;50.876;4.246;2022-08-19T04:41:50;24.83;;;17.95;;
23155;SDS011;11746;50.876;4.246;2022-08-19T04:44:34;24.73;;;17.95;;
23155;SDS011;11746;50.876;4.246;2022-08-19T04:47:03;26.50;;;18.83;;
23155;SDS011;11746;50.876;4.246;2022-08-19T04:49:31;24.02;;;17.00;;
23155;SDS011;11746;50.876;4.246;2022-08-19T04:51:57;26.73;;;17.90;;
23155;SDS011;11746;50.876;4.246;2022-08-19T04:54:23;23.67;;;16.92;;
23155;SDS011;11746;50.876;4.246;2022-08-19T04:56:51;24.65;;;17.35;;
23155;SDS011;11746;50.876;4.246;2022-08-19T04:59:20;23.77;;;17.60;;
23155;SDS011;11746;50.876;4.246;2022-08-19T05:01:46;26.67;;;17.35;;
23155;SDS011;11746;50.876;4.246;2022-08-19T05:04:20;25.75;;;17.15;;
23155;SDS011;11746;50.876;4.246;2022-08-19T05:06:48;26.30;;;17.92;;
23155;SDS011;11746;50.876;4.246;2022-08-19T05:09:17;25.35;;;18.58;;
23155;SDS011;11746;50.876;4.246;2022-08-19T05:11:43;24.13;;;18.08;;
23155;SDS011;11746;50.876;4.246;2022-08-19T05:14:09;24.02;;;17.40;;
23155;SDS011;11746;50.876;4.246;2022-08-19T05:16:40;23.08;;;15.98;;
23155;SDS011;11746;50.876;4.246;2022-08-19T05:19:08;23.13;;;17.05;;
23155;SDS011;11746;50.876;4.246;2022-08-19T05:21:53;23.42;;;15.77;;
23155;SDS011;11746;50.876;4.246;2022-08-19T05:24:40;22.45;;;15.80;;
23155;SDS011;11746;50.876;4.246;2022-08-19T05:27:08;19.05;;;15.20;;
23155;SDS011;11746;50.876;4.246;2022-08-19T05:29:33;20.95;;;14.25;;
23155;SDS011;11746;50.876;4.246;2022-08-19T05:32:00;22.35;;;14.85;;
23155;SDS011;11746;50.876;4.246;2022-08-19T05:34:30;22.40;;;15.90;;
23155;SDS011;11746;50.876;4.246;2022-08-19T05:36:58;23.38;;;15.70;;
23155;SDS011;11746;50.876;4.246;2022-08-19T05:39:28;23.00;;;16.38;;
23155;SDS011;11746;50.876;4.246;2022-08-19T05:41:56;26.25;;;18.40;;
23155;SDS011;11746;50.876;4.246;2022-08-19T05:44:27;27.33;;;16.88;;
23155;SDS011;11746;50.876;4.246;2022-08-19T05:46:59;23.67;;;16.77;;
23155;SDS011;11746;50.876;4.246;2022-08-19T05:49:28;24.40;;;16.95;;
23155;SDS011;11746;50.876;4.246;2022-08-19T05:51:59;25.63;;;16.90;;
23155;SDS011;11746;50.876;4.246;2022-08-19T05:54:29;24.20;;;17.00;;
23155;SDS011;11746;50.876;4.246;2022-08-19T05:56:55;25.90;;;17.20;;
23155;SDS011;11746;50.876;4.246;2022-08-19T05:59:21;24.92;;;17.30;;
23155;SDS011;11746;50.876;4.246;2022-08-19T06:01:49;24.38;;;16.65;;
23155;SDS011;11746;50.876;4.246;2022-08-19T06:04:17;25.15;;;17.77;;
23155;SDS011;11746;50.876;4.246;2022-08-19T06:06:48;23.45;;;16.50;;
23155;SDS011;11746;50.876;4.246;2022-08-19T06:09:16;27.33;;;17.08;;
23155;SDS011;11746;50.876;4.246;2022-08-19T06:11:42;23.33;;;16.63;;
23155;SDS011;11746;50.876;4.246;2022-08-19T06:14:15;24.88;;;16.80;;
23155;SDS011;11746;50.876;4.246;2022-08-19T06:16:43;22.73;;;15.65;;
23155;SDS011;11746;50.876;4.246;2022-08-19T06:19:11;27.95;;;15.90;;
23155;SDS011;11746;50.876;4.246;2022-08-19T06:21:41;23.45;;;15.95;;
23155;SDS011;11746;50.876;4.246;2022-08-19T06:24:10;21.15;;;14.75;;
23155;SDS011;11746;50.876;4.246;2022-08-19T06:26:39;24.67;;;15.30;;
23155;SDS011;11746;50.876;4.246;2022-08-19T06:29:07;20.95;;;14.02;;
23155;SDS011;11746;50.876;4.246;2022-08-19T06:31:40;24.13;;;13.90;;
23155;SDS011;11746;50.876;4.246;2022-08-19T06:34:08;22.58;;;13.85;;
23155;SDS011;11746;50.876;4.246;2022-08-19T06:36:37;23.23;;;13.32;;
23155;SDS011;11746;50.876;4.246;2022-08-19T06:39:16;23.40;;;13.82;;
23155;SDS011;11746;50.876;4.246;2022-08-19T06:41:47;19.30;;;12.38;;
23155;SDS011;11746;50.876;4.246;2022-08-19T06:44:17;18.08;;;13.18;;
23155;SDS011;11746;50.876;4.246;2022-08-19T06:46:50;20.20;;;13.30;;
23155;SDS011;11746;50.876;4.246;2022-08-19T06:49:18;19.80;;;12.63;;
23155;SDS011;11746;50.876;4.246;2022-08-19T06:51:45;17.75;;;12.32;;
23155;SDS011;11746;50.876;4.246;2022-08-19T06:54:20;19.08;;;12.63;;
23155;SDS011;11746;50.876;4.246;2022-08-19T06:56:46;21.02;;;12.50;;
23155;SDS011;11746;50.876;4.246;2022-08-19T06:59:15;19.25;;;12.05;;
23155;SDS011;11746;50.876;4.246;2022-08-19T07:01:52;18.08;;;11.90;;
23155;SDS011;11746;50.876;4.246;2022-08-19T07:04:20;19.55;;;11.45;;
23155;SDS011;11746;50.876;4.246;2022-08-19T07:06:55;15.55;;;10.15;;
23155;SDS011;11746;50.876;4.246;2022-08-19T07:09:25;14.82;;;10.32;;
23155;SDS011;11746;50.876;4.246;2022-08-19T07:11:54;17.17;;;9.10;;
23155;SDS011;11746;50.876;4.246;2022-08-19T07:14:26;16.08;;;9.73;;
23155;SDS011;11746;50.876;4.246;2022-08-19T07:16:54;13.98;;;9.43;;
23155;SDS011;11746;50.876;4.246;2022-08-19T07:19:23;15.45;;;8.95;;
23155;SDS011;11746;50.876;4.246;2022-08-19T07:21:52;13.27;;;9.27;;
23155;SDS011;11746;50.876;4.246;2022-08-19T07:24:19;14.60;;;9.45;;
23155;SDS011;11746;50.876;4.246;2022-08-19T07:26:48;14.95;;;8.75;;
23155;SDS011;11746;50.876;4.246;2022-08-19T07:29:13;14.25;;;8.40;;
23155;SDS011;11746;50.876;4.246;2022-08-19T07:31:44;14.57;;;8.27;;
23155;SDS011;11746;50.876;4.246;2022-08-19T07:34:12;13.80;;;9.07;;
23155;SDS011;11746;50.876;4.246;2022-08-19T07:36:39;12.77;;;8.23;;
23155;SDS011;11746;50.876;4.246;2022-08-19T07:42:03;15.88;;;7.97;;
23155;SDS011;11746;50.876;4.246;2022-08-19T07:44:31;15.90;;;8.05;;
23155;SDS011;11746;50.876;4.246;2022-08-19T07:46:58;12.35;;;7.60;;
23155;SDS011;11746;50.876;4.246;2022-08-19T07:49:29;11.35;;;7.30;;
23155;SDS011;11746;50.876;4.246;2022-08-19T07:51:59;13.77;;;7.78;;
23155;SDS011;11746;50.876;4.246;2022-08-19T07:54:31;8.80;;;6.75;;
23155;SDS011;11746;50.876;4.246;2022-08-19T07:57:03;14.05;;;7.07;;
23155;SDS011;11746;50.876;4.246;2022-08-19T07:59:32;12.95;;;8.00;;
23155;SDS011;11746;50.876;4.246;2022-08-19T08:02:01;10.07;;;7.22;;
23155;SDS011;11746;50.876;4.246;2022-08-19T08:04:30;10.35;;;7.47;;
23155;SDS011;11746;50.876;4.246;2022-08-19T08:07:15;11.23;;;6.80;;
23155;SDS011;11746;50.876;4.246;2022-08-19T08:10:00;11.07;;;7.70;;
23155;SDS011;11746;50.876;4.246;2022-08-19T08:12:28;11.13;;;7.40;;
23155;SDS011;11746;50.876;4.246;2022-08-19T08:15:07;10.48;;;6.53;;
23155;SDS011;11746;50.876;4.246;2022-08-19T08:17:41;13.32;;;7.20;;
23155;SDS011;11746;50.876;4.246;2022-08-19T08:20:07;9.85;;;6.43;;
23155;SDS011;11746;50.876;4.246;2022-08-19T08:22:34;13.05;;;6.60;;
23155;SDS011;11746;50.876;4.246;2022-08-19T08:25:21;12.65;;;6.28;;
23155;SDS011;11746;50.876;4.246;2022-08-19T08:27:48;10.63;;;6.78;;
23155;SDS011;11746;50.876;4.246;2022-08-19T08:30:20;9.20;;;6.00;;
23155;SDS011;11746;50.876;4.246;2022-08-19T08:35:16;14.85;;;6.70;;
23155;SDS011;11746;50.876;4.246;2022-08-19T08:37:45;11.60;;;6.18;;
23155;SDS011;11746;50.876;4.246;2022-08-19T08:42:51;10.10;;;5.72;;
23155;SDS011;11746;50.876;4.246;2022-08-19T08:45:30;9.57;;;6.13;;
23155;SDS011;11746;50.876;4.246;2022-08-19T08:48:00;8.88;;;6.10;;
23155;SDS011;11746;50.876;4.246;2022-08-19T08:50:40;9.45;;;6.75;;
23155;SDS011;11746;50.876;4.246;2022-08-19T08:53:12;10.93;;;6.95;;
23155;SDS011;11746;50.876;4.246;2022-08-19T08:55:43;10.23;;;6.25;;
23155;SDS011;11746;50.876;4.246;2022-08-19T08:58:16;9.45;;;5.88;;
23155;SDS011;11746;50.876;4.246;2022-08-19T09:00:49;8.82;;;5.75;;
23155;SDS011;11746;50.876;4.246;2022-08-19T09:03:20;10.40;;;6.40;;
23155;SDS011;11746;50.876;4.246;2022-08-19T09:05:57;9.55;;;6.00;;
23155;SDS011;11746;50.876;4.246;2022-08-19T09:11:41;8.52;;;5.30;;
23155;SDS011;11746;50.876;4.246;2022-08-19T09:14:45;7.68;;;5.72;;
23155;SDS011;11746;50.876;4.246;2022-08-19T09:17:23;11.38;;;5.97;;
23155;SDS011;11746;50.876;4.246;2022-08-19T09:20:05;8.68;;;5.72;;
23155;SDS011;11746;50.876;4.246;2022-08-19T09:22:35;9.48;;;5.25;;
23155;SDS011;11746;50.876;4.246;2022-08-19T09:25:06;8.95;;;5.53;;
23155;SDS011;11746;50.876;4.246;2022-08-19T09:27:35;8.73;;;5.22;;
23155;SDS011;11746;50.876;4.246;2022-08-19T09:30:02;9.93;;;6.20;;
23155;SDS011;11746;50.876;4.246;2022-08-19T09:32:32;9.43;;;5.10;;
23155;SDS011;11746;50.876;4.246;2022-08-19T09:35:00;7.32;;;5.07;;
23155;SDS011;11746;50.876;4.246;2022-08-19T09:37:28;5.95;;;4.50;;
23155;SDS011;11746;50.876;4.246;2022-08-19T09:39:57;9.52;;;4.78;;
23155;SDS011;11746;50.876;4.246;2022-08-19T09:42:25;6.55;;;4.22;;
23155;SDS011;11746;50.876;4.246;2022-08-19T09:44:53;9.93;;;5.05;;
23155;SDS011;11746;50.876;4.246;2022-08-19T09:47:18;9.45;;;4.90;;
23155;SDS011;11746;50.876;4.246;2022-08-19T09:49:44;6.45;;;4.85;;
23155;SDS011;11746;50.876;4.246;2022-08-19T09:52:10;7.57;;;5.03;;
23155;SDS011;11746;50.876;4.246;2022-08-19T09:54:40;7.70;;;5.00;;
23155;SDS011;11746;50.876;4.246;2022-08-19T09:57:08;9.18;;;5.72;;
23155;SDS011;11746;50.876;4.246;2022-08-19T09:59:35;8.20;;;5.72;;
23155;SDS011;11746;50.876;4.246;2022-08-19T10:02:04;9.23;;;6.22;;
23155;SDS011;11746;50.876;4.246;2022-08-19T10:04:34;9.07;;;5.47;;
23155;SDS011;11746;50.876;4.246;2022-08-19T10:07:19;10.70;;;5.78;;
23155;SDS011;11746;50.876;4.246;2022-08-19T10:09:46;9.98;;;6.20;;
23155;SDS011;11746;50.876;4.246;2022-08-19T10:12:12;7.80;;;5.63;;
23155;SDS011;11746;50.876;4.246;2022-08-19T10:14:39;9.90;;;6.32;;
23155;SDS011;11746;50.876;4.246;2022-08-19T10:17:04;11.30;;;5.50;;
23155;SDS011;11746;50.876;4.246;2022-08-19T10:19:32;7.78;;;5.70;;
23155;SDS011;11746;50.876;4.246;2022-08-19T10:22:04;9.13;;;5.50;;
23155;SDS011;11746;50.876;4.246;2022-08-19T10:24:32;8.60;;;5.88;;
23155;SDS011;11746;50.876;4.246;2022-08-19T10:26:59;9.55;;;5.22;;
23155;SDS011;11746;50.876;4.246;2022-08-19T10:29:28;8.02;;;5.35;;
23155;SDS011;11746;50.876;4.246;2022-08-19T10:32:02;8.00;;;5.10;;
23155;SDS011;11746;50.876;4.246;2022-08-19T10:34:33;7.45;;;4.60;;
23155;SDS011;11746;50.876;4.246;2022-08-19T10:37:00;8.70;;;4.40;;
23155;SDS011;11746;50.876;4.246;2022-08-19T10:39:28;5.35;;;3.72;;
23155;SDS011;11746;50.876;4.246;2022-08-19T10:42:04;5.30;;;3.63;;
23155;SDS011;11746;50.876;4.246;2022-08-19T10:44:32;5.40;;;3.65;;
23155;SDS011;11746;50.876;4.246;2022-08-19T10:46:59;5.72;;;3.10;;
23155;SDS011;11746;50.876;4.246;2022-08-19T10:49:25;3.83;;;2.92;;
23155;SDS011;11746;50.876;4.246;2022-08-19T10:51:52;6.38;;;3.70;;
23155;SDS011;11746;50.876;4.246;2022-08-19T10:54:36;6.78;;;4.03;;
23155;SDS011;11746;50.876;4.246;2022-08-19T10:57:20;5.88;;;3.92;;
23155;SDS011;11746;50.876;4.246;2022-08-19T10:59:49;6.53;;;3.90;;
23155;SDS011;11746;50.876;4.246;2022-08-19T11:02:17;4.95;;;3.40;;
23155;SDS011;11746;50.876;4.246;2022-08-19T11:04:45;6.10;;;3.97;;
23155;SDS011;11746;50.876;4.246;2022-08-19T11:07:15;6.63;;;4.25;;
23155;SDS011;11746;50.876;4.246;2022-08-19T11:09:43;6.28;;;4.43;;
23155;SDS011;11746;50.876;4.246;2022-08-19T11:12:09;6.65;;;4.45;;
23155;SDS011;11746;50.876;4.246;2022-08-19T11:14:35;7.03;;;4.57;;
23155;SDS011;11746;50.876;4.246;2022-08-19T11:17:05;7.85;;;4.60;;
23155;SDS011;11746;50.876;4.246;2022-08-19T11:19:31;6.97;;;4.43;;
23155;SDS011;11746;50.876;4.246;2022-08-19T11:22:00;6.57;;;4.20;;
23155;SDS011;11746;50.876;4.246;2022-08-19T11:24:31;7.07;;;4.53;;
23155;SDS011;11746;50.876;4.246;2022-08-19T11:27:00;7.63;;;6.50;;
23155;SDS011;11746;50.876;4.246;2022-08-19T11:29:32;9.98;;;8.35;;
23155;SDS011;11746;50.876;4.246;2022-08-19T11:31:59;12.55;;;8.55;;
23155;SDS011;11746;50.876;4.246;2022-08-19T11:34:32;11.73;;;8.10;;
23155;SDS011;11746;50.876;4.246;2022-08-19T11:36:58;10.93;;;8.45;;
23155;SDS011;11746;50.876;4.246;2022-08-19T11:39:25;12.27;;;8.90;;
23155;SDS011;11746;50.876;4.246;2022-08-19T11:41:55;8.75;;;7.20;;
23155;SDS011;11746;50.876;4.246;2022-08-19T11:44:23;11.25;;;8.07;;
23155;SDS011;11746;50.876;4.246;2022-08-19T11:46:49;10.48;;;7.47;;
23155;SDS011;11746;50.876;4.246;2022-08-19T11:49:17;11.73;;;7.40;;
23155;SDS011;11746;50.876;4.246;2022-08-19T11:51:46;10.05;;;7.18;;
23155;SDS011;11746;50.876;4.246;2022-08-19T11:54:19;8.13;;;6.00;;
23155;SDS011;11746;50.876;4.246;2022-08-19T11:56:44;36.88;;;8.25;;
23155;SDS011;11746;50.876;4.246;2022-08-19T11:59:11;8.95;;;6.93;;
23155;SDS011;11746;50.876;4.246;2022-08-19T12:01:41;8.40;;;6.45;;
23155;SDS011;11746;50.876;4.246;2022-08-19T12:04:10;11.45;;;6.00;;
23155;SDS011;11746;50.876;4.246;2022-08-19T12:06:39;7.32;;;5.82;;
23155;SDS011;11746;50.876;4.246;2022-08-19T12:09:06;7.65;;;5.10;;
23155;SDS011;11746;50.876;4.246;2022-08-19T12:11:34;8.85;;;5.88;;
23155;SDS011;11746;50.876;4.246;2022-08-19T12:14:01;9.00;;;5.15;;
23155;SDS011;11746;50.876;4.246;2022-08-19T12:16:28;8.00;;;5.50;;
23155;SDS011;11746;50.876;4.246;2022-08-19T12:18:58;9.65;;;4.80;;
23155;SDS011;11746;50.876;4.246;2022-08-19T12:21:29;5.60;;;3.67;;
23155;SDS011;11746;50.876;4.246;2022-08-19T12:24:02;3.05;;;2.75;;
23155;SDS011;11746;50.876;4.246;2022-08-19T12:26:31;4.72;;;2.90;;
23155;SDS011;11746;50.876;4.246;2022-08-19T12:29:00;3.95;;;3.10;;
23155;SDS011;11746;50.876;4.246;2022-08-19T12:31:28;3.13;;;2.40;;
23155;SDS011;11746;50.876;4.246;2022-08-19T12:33:55;2.95;;;2.67;;
23155;SDS011;11746;50.876;4.246;2022-08-19T12:36:27;5.25;;;3.25;;
23155;SDS011;11746;50.876;4.246;2022-08-19T12:38:53;5.60;;;3.17;;
23155;SDS011;11746;50.876;4.246;2022-08-19T12:41:21;5.13;;;2.70;;
23155;SDS011;11746;50.876;4.246;2022-08-19T12:43:49;4.20;;;2.85;;
23155;SDS011;11746;50.876;4.246;2022-08-19T12:46:18;6.63;;;2.70;;
23155;SDS011;11746;50.876;4.246;2022-08-19T12:48:46;3.05;;;2.40;;
23155;SDS011;11746;50.876;4.246;2022-08-19T12:51:13;3.92;;;2.78;;
23155;SDS011;11746;50.876;4.246;2022-08-19T12:53:41;5.20;;;2.80;;
23155;SDS011;11746;50.876;4.246;2022-08-19T12:56:08;4.03;;;2.53;;
23155;SDS011;11746;50.876;4.246;2022-08-19T12:58:36;2.25;;;2.05;;
23155;SDS011;11746;50.876;4.246;2022-08-19T13:01:07;3.97;;;2.67;;
23155;SDS011;11746;50.876;4.246;2022-08-19T13:03:40;5.72;;;2.25;;
23155;SDS011;11746;50.876;4.246;2022-08-19T13:06:10;2.90;;;2.45;;
23155;SDS011;11746;50.876;4.246;2022-08-19T13:08:38;4.88;;;2.70;;
23155;SDS011;11746;50.876;4.246;2022-08-19T13:11:12;5.85;;;2.30;;
23155;SDS011;11746;50.876;4.246;2022-08-19T13:13:43;3.33;;;2.60;;
23155;SDS011;11746;50.876;4.246;2022-08-19T13:16:15;5.07;;;2.60;;
23155;SDS011;11746;50.876;4.246;2022-08-19T13:18:42;2.60;;;2.08;;
23155;SDS011;11746;50.876;4.246;2022-08-19T13:21:12;4.15;;;2.15;;
23155;SDS011;11746;50.876;4.246;2022-08-19T13:23:41;2.92;;;1.58;;
23155;SDS011;11746;50.876;4.246;2022-08-19T13:26:10;3.33;;;1.77;;
23155;SDS011;11746;50.876;4.246;2022-08-19T13:28:36;6.28;;;1.70;;
23155;SDS011;11746;50.876;4.246;2022-08-19T13:31:22;4.22;;;1.85;;
23155;SDS011;11746;50.876;4.246;2022-08-19T13:34:10;3.15;;;1.55;;
23155;SDS011;11746;50.876;4.246;2022-08-19T13:36:36;3.88;;;1.27;;
23155;SDS011;11746;50.876;4.246;2022-08-19T13:39:08;3.15;;;1.50;;
23155;SDS011;11746;50.876;4.246;2022-08-19T13:41:40;2.22;;;1.40;;
23155;SDS011;11746;50.876;4.246;2022-08-19T13:44:12;2.70;;;1.40;;
23155;SDS011;11746;50.876;4.246;2022-08-19T13:46:43;2.63;;;1.63;;
23155;SDS011;11746;50.876;4.246;2022-08-19T13:49:10;2.75;;;1.55;;
23155;SDS011;11746;50.876;4.246;2022-08-19T13:51:40;4.10;;;2.00;;
23155;SDS011;11746;50.876;4.246;2022-08-19T13:54:10;4.25;;;2.35;;
23155;SDS011;11746;50.876;4.246;2022-08-19T13:56:46;4.80;;;2.95;;
23155;SDS011;11746;50.876;4.246;2022-08-19T13:59:13;13.98;;;4.20;;
23155;SDS011;11746;50.876;4.246;2022-08-19T14:01:41;6.97;;;3.80;;
23155;SDS011;11746;50.876;4.246;2022-08-19T14:04:08;5.60;;;3.60;;
23155;SDS011;11746;50.876;4.246;2022-08-19T14:06:37;5.68;;;3.83;;
23155;SDS011;11746;50.876;4.246;2022-08-19T14:09:03;5.15;;;3.95;;
23155;SDS011;11746;50.876;4.246;2022-08-19T14:11:29;6.30;;;4.10;;
23155;SDS011;11746;50.876;4.246;2022-08-19T14:13:58;5.65;;;4.22;;
23155;SDS011;11746;50.876;4.246;2022-08-19T14:16:24;5.72;;;4.30;;
23155;SDS011;11746;50.876;4.246;2022-08-19T14:18:53;4.95;;;3.42;;
23155;SDS011;11746;50.876;4.246;2022-08-19T14:21:24;6.15;;;3.40;;
23155;SDS011;11746;50.876;4.246;2022-08-19T14:23:50;2.80;;;2.35;;
23155;SDS011;11746;50.876;4.246;2022-08-19T14:26:17;3.45;;;2.70;;
23155;SDS011;11746;50.876;4.246;2022-08-19T14:28:44;3.40;;;2.58;;
23155;SDS011;11746;50.876;4.246;2022-08-19T14:31:13;4.47;;;2.22;;
23155;SDS011;11746;50.876;4.246;2022-08-19T14:33:41;4.13;;;2.58;;
23155;SDS011;11746;50.876;4.246;2022-08-19T14:36:09;5.57;;;2.70;;
23155;SDS011;11746;50.876;4.246;2022-08-19T14:38:37;4.20;;;2.88;;
23155;SDS011;11746;50.876;4.246;2022-08-19T14:41:11;4.40;;;2.60;;
23155;SDS011;11746;50.876;4.246;2022-08-19T14:43:45;3.33;;;2.33;;
23155;SDS011;11746;50.876;4.246;2022-08-19T14:46:14;4.55;;;2.35;;
23155;SDS011;11746;50.876;4.246;2022-08-19T14:48:44;2.38;;;2.08;;
23155;SDS011;11746;50.876;4.246;2022-08-19T14:51:10;3.45;;;2.00;;
23155;SDS011;11746;50.876;4.246;2022-08-19T14:53:37;3.60;;;2.03;;
23155;SDS011;11746;50.876;4.246;2022-08-19T14:56:09;3.58;;;1.73;;
23155;SDS011;11746;50.876;4.246;2022-08-19T14:58:38;3.45;;;1.73;;
23155;SDS011;11746;50.876;4.246;2022-08-19T15:01:05;1.95;;;1.42;;